sensor_id;sensor_type;location;lat;lon;timestamp;temperature;humidity
19999;DHT22;10160;50.926;4.374;2023-02-15T00:01:37;8.20;99.90
19999;DHT22;10160;50.926;4.374;2023-02-15T00:04:04;8.20;99.90
19999;DHT22;10160;50.926;4.374;2023-02-15T00:06:30;8.20;99.90
19999;DHT22;10160;50.926;4.374;2023-02-15T00:08:56;8.20;99.90
19999;DHT22;10160;50.926;4.374;2023-02-15T00:11:22;8.10;99.90
19999;DHT22;10160;50.926;4.374;2023-02-15T00:14:20;8.30;99.90
19999;DHT22;10160;50.926;4.374;2023-02-15T00:16:47;8.20;99.90
19999;DHT22;10160;50.926;4.374;2023-02-15T00:19:15;8.20;99.90
19999;DHT22;10160;50.926;4.374;2023-02-15T00:21:41;8.10;99.90
19999;DHT22;10160;50.926;4.374;2023-02-15T00:24:09;8.00;99.90
19999;DHT22;10160;50.926;4.374;2023-02-15T00:26:35;7.90;99.90
19999;DHT22;10160;50.926;4.374;2023-02-15T00:29:03;7.80;99.90
19999;DHT22;10160;50.926;4.374;2023-02-15T00:31:31;7.80;99.90
19999;DHT22;10160;50.926;4.374;2023-02-15T00:34:02;7.70;99.90
19999;DHT22;10160;50.926;4.374;2023-02-15T00:36:28;7.70;99.90
19999;DHT22;10160;50.926;4.374;2023-02-15T00:38:53;7.60;99.90
19999;DHT22;10160;50.926;4.374;2023-02-15T00:41:19;7.40;99.90
19999;DHT22;10160;50.926;4.374;2023-02-15T00:43:45;7.50;99.90
19999;DHT22;10160;50.926;4.374;2023-02-15T00:46:12;7.60;99.90
19999;DHT22;10160;50.926;4.374;2023-02-15T00:48:38;7.70;99.90
19999;DHT22;10160;50.926;4.374;2023-02-15T00:51:04;7.70;99.90
19999;DHT22;10160;50.926;4.374;2023-02-15T00:53:30;7.80;99.90
19999;DHT22;10160;50.926;4.374;2023-02-15T00:55:56;7.60;99.90
19999;DHT22;10160;50.926;4.374;2023-02-15T00:58:22;7.40;99.90
19999;DHT22;10160;50.926;4.374;2023-02-15T01:00:48;7.20;99.90
19999;DHT22;10160;50.926;4.374;2023-02-15T01:03:16;7.10;99.90
19999;DHT22;10160;50.926;4.374;2023-02-15T01:05:42;7.10;99.90
19999;DHT22;10160;50.926;4.374;2023-02-15T01:08:08;7.10;99.90
19999;DHT22;10160;50.926;4.374;2023-02-15T01:10:34;7.20;99.90
19999;DHT22;10160;50.926;4.374;2023-02-15T01:13:01;7.40;99.90
19999;DHT22;10160;50.926;4.374;2023-02-15T01:15:26;7.50;99.90
19999;DHT22;10160;50.926;4.374;2023-02-15T01:17:52;7.40;99.90
19999;DHT22;10160;50.926;4.374;2023-02-15T01:20:26;7.40;99.90
19999;DHT22;10160;50.926;4.374;2023-02-15T01:22:53;7.50;99.90
19999;DHT22;10160;50.926;4.374;2023-02-15T01:25:21;7.20;99.90
19999;DHT22;10160;50.926;4.374;2023-02-15T01:27:47;7.20;99.90
19999;DHT22;10160;50.926;4.374;2023-02-15T01:30:14;7.20;99.90
19999;DHT22;10160;50.926;4.374;2023-02-15T01:32:40;7.10;99.90
19999;DHT22;10160;50.926;4.374;2023-02-15T01:35:06;7.10;99.90
19999;DHT22;10160;50.926;4.374;2023-02-15T01:37:33;7.00;99.90
19999;DHT22;10160;50.926;4.374;2023-02-15T01:39:59;7.10;99.90
19999;DHT22;10160;50.926;4.374;2023-02-15T01:42:27;7.10;99.90
19999;DHT22;10160;50.926;4.374;2023-02-15T01:44:58;7.00;99.90
19999;DHT22;10160;50.926;4.374;2023-02-15T01:47:38;7.10;99.90
19999;DHT22;10160;50.926;4.374;2023-02-15T01:53:08;7.00;99.90
19999;DHT22;10160;50.926;4.374;2023-02-15T01:55:48;6.80;99.90
19999;DHT22;10160;50.926;4.374;2023-02-15T01:58:15;6.80;99.90
19999;DHT22;10160;50.926;4.374;2023-02-15T02:00:41;6.80;99.90
19999;DHT22;10160;50.926;4.374;2023-02-15T02:03:07;6.80;99.90
19999;DHT22;10160;50.926;4.374;2023-02-15T02:05:33;6.60;99.90
19999;DHT22;10160;50.926;4.374;2023-02-15T02:08:01;6.50;99.90
19999;DHT22;10160;50.926;4.374;2023-02-15T02:10:27;6.30;99.90
19999;DHT22;10160;50.926;4.374;2023-02-15T02:12:57;6.20;99.90
19999;DHT22;10160;50.926;4.374;2023-02-15T02:18:37;6.20;99.90
19999;DHT22;10160;50.926;4.374;2023-02-15T02:24:11;6.50;99.90
19999;DHT22;10160;50.926;4.374;2023-02-15T02:38:37;6.20;99.90
19999;DHT22;10160;50.926;4.374;2023-02-15T02:41:18;6.10;99.90
19999;DHT22;10160;50.926;4.374;2023-02-15T02:44:17;6.20;99.90
19999;DHT22;10160;50.926;4.374;2023-02-15T02:47:33;6.10;99.90
19999;DHT22;10160;50.926;4.374;2023-02-15T02:50:00;6.10;99.90
19999;DHT22;10160;50.926;4.374;2023-02-15T02:52:36;6.10;99.90
19999;DHT22;10160;50.926;4.374;2023-02-15T02:55:10;6.20;99.90
19999;DHT22;10160;50.926;4.374;2023-02-15T02:57:43;6.20;99.90
19999;DHT22;10160;50.926;4.374;2023-02-15T03:00:12;6.10;99.90
19999;DHT22;10160;50.926;4.374;2023-02-15T03:02:42;6.10;99.90
19999;DHT22;10160;50.926;4.374;2023-02-15T03:05:14;6.10;99.90
19999;DHT22;10160;50.926;4.374;2023-02-15T03:07:42;6.10;99.90
19999;DHT22;10160;50.926;4.374;2023-02-15T03:10:08;6.10;99.90
19999;DHT22;10160;50.926;4.374;2023-02-15T03:12:36;6.10;99.90
19999;DHT22;10160;50.926;4.374;2023-02-15T03:15:15;6.00;99.90
19999;DHT22;10160;50.926;4.374;2023-02-15T03:17:44;6.00;99.90
19999;DHT22;10160;50.926;4.374;2023-02-15T03:20:27;5.90;99.90
19999;DHT22;10160;50.926;4.374;2023-02-15T03:23:01;5.80;99.90
19999;DHT22;10160;50.926;4.374;2023-02-15T03:25:36;5.80;99.90
19999;DHT22;10160;50.926;4.374;2023-02-15T03:28:07;6.00;99.90
19999;DHT22;10160;50.926;4.374;2023-02-15T03:30:34;5.90;99.90
19999;DHT22;10160;50.926;4.374;2023-02-15T03:33:01;5.80;99.90
19999;DHT22;10160;50.926;4.374;2023-02-15T03:35:36;5.80;99.90
19999;DHT22;10160;50.926;4.374;2023-02-15T03:38:07;5.70;99.90
19999;DHT22;10160;50.926;4.374;2023-02-15T03:40:38;5.80;99.90
19999;DHT22;10160;50.926;4.374;2023-02-15T03:45:59;5.80;99.90
19999;DHT22;10160;50.926;4.374;2023-02-15T03:48:32;5.60;99.90
19999;DHT22;10160;50.926;4.374;2023-02-15T03:51:03;5.50;99.90
19999;DHT22;10160;50.926;4.374;2023-02-15T03:53:49;5.60;99.90
19999;DHT22;10160;50.926;4.374;2023-02-15T03:56:16;5.60;99.90
19999;DHT22;10160;50.926;4.374;2023-02-15T03:58:41;5.50;99.90
19999;DHT22;10160;50.926;4.374;2023-02-15T04:01:51;5.50;99.90
19999;DHT22;10160;50.926;4.374;2023-02-15T04:04:38;5.50;99.90
19999;DHT22;10160;50.926;4.374;2023-02-15T04:07:06;5.60;99.90
19999;DHT22;10160;50.926;4.374;2023-02-15T04:09:32;5.60;99.90
19999;DHT22;10160;50.926;4.374;2023-02-15T04:12:16;5.70;99.90
19999;DHT22;10160;50.926;4.374;2023-02-15T04:14:42;5.70;99.90
19999;DHT22;10160;50.926;4.374;2023-02-15T04:17:26;5.60;99.90
19999;DHT22;10160;50.926;4.374;2023-02-15T04:19:52;5.60;99.90
19999;DHT22;10160;50.926;4.374;2023-02-15T04:22:36;5.50;99.90
19999;DHT22;10160;50.926;4.374;2023-02-15T04:25:20;5.50;99.90
19999;DHT22;10160;50.926;4.374;2023-02-15T04:27:48;5.50;99.90
19999;DHT22;10160;50.926;4.374;2023-02-15T04:30:17;5.60;99.90
19999;DHT22;10160;50.926;4.374;2023-02-15T04:32:44;5.80;99.90
19999;DHT22;10160;50.926;4.374;2023-02-15T04:35:10;5.70;99.90
19999;DHT22;10160;50.926;4.374;2023-02-15T04:37:37;5.60;99.90
19999;DHT22;10160;50.926;4.374;2023-02-15T04:40:06;5.70;99.90
19999;DHT22;10160;50.926;4.374;2023-02-15T04:42:32;5.60;99.90
19999;DHT22;10160;50.926;4.374;2023-02-15T04:44:58;5.50;99.90
19999;DHT22;10160;50.926;4.374;2023-02-15T04:47:24;5.50;99.90
19999;DHT22;10160;50.926;4.374;2023-02-15T04:49:49;5.50;99.90
19999;DHT22;10160;50.926;4.374;2023-02-15T04:52:15;5.40;99.90
19999;DHT22;10160;50.926;4.374;2023-02-15T04:54:43;5.50;99.90
19999;DHT22;10160;50.926;4.374;2023-02-15T04:57:09;5.50;99.90
19999;DHT22;10160;50.926;4.374;2023-02-15T04:59:35;5.50;99.90
19999;DHT22;10160;50.926;4.374;2023-02-15T05:02:01;5.40;99.90
19999;DHT22;10160;50.926;4.374;2023-02-15T05:04:27;5.30;99.90
19999;DHT22;10160;50.926;4.374;2023-02-15T05:06:52;5.30;99.90
19999;DHT22;10160;50.926;4.374;2023-02-15T05:09:18;5.40;99.90
19999;DHT22;10160;50.926;4.374;2023-02-15T05:11:44;5.50;99.90
19999;DHT22;10160;50.926;4.374;2023-02-15T05:14:10;5.40;99.90
19999;DHT22;10160;50.926;4.374;2023-02-15T05:16:35;5.10;99.90
19999;DHT22;10160;50.926;4.374;2023-02-15T05:19:01;5.10;99.90
19999;DHT22;10160;50.926;4.374;2023-02-15T05:21:27;5.20;99.90
19999;DHT22;10160;50.926;4.374;2023-02-15T05:23:52;5.20;99.90
19999;DHT22;10160;50.926;4.374;2023-02-15T05:26:23;5.10;99.90
19999;DHT22;10160;50.926;4.374;2023-02-15T05:29:08;5.20;99.90
19999;DHT22;10160;50.926;4.374;2023-02-15T05:31:35;5.10;99.90
19999;DHT22;10160;50.926;4.374;2023-02-15T05:34:01;5.10;99.90
19999;DHT22;10160;50.926;4.374;2023-02-15T05:36:27;5.20;99.90
19999;DHT22;10160;50.926;4.374;2023-02-15T05:38:54;5.20;99.90
19999;DHT22;10160;50.926;4.374;2023-02-15T05:41:20;5.20;99.90
19999;DHT22;10160;50.926;4.374;2023-02-15T05:43:46;5.30;99.90
19999;DHT22;10160;50.926;4.374;2023-02-15T05:46:12;5.30;99.90
19999;DHT22;10160;50.926;4.374;2023-02-15T05:48:38;5.40;99.90
19999;DHT22;10160;50.926;4.374;2023-02-15T05:51:12;5.40;99.90
19999;DHT22;10160;50.926;4.374;2023-02-15T05:53:42;5.40;99.90
19999;DHT22;10160;50.926;4.374;2023-02-15T05:56:10;5.30;99.90
19999;DHT22;10160;50.926;4.374;2023-02-15T05:58:38;5.30;99.90
19999;DHT22;10160;50.926;4.374;2023-02-15T06:01:15;5.40;99.90
19999;DHT22;10160;50.926;4.374;2023-02-15T06:03:42;5.60;99.90
19999;DHT22;10160;50.926;4.374;2023-02-15T06:06:08;5.50;99.90
19999;DHT22;10160;50.926;4.374;2023-02-15T06:08:35;5.40;99.90
19999;DHT22;10160;50.926;4.374;2023-02-15T06:11:02;5.40;99.90
19999;DHT22;10160;50.926;4.374;2023-02-15T06:13:28;5.40;99.90
19999;DHT22;10160;50.926;4.374;2023-02-15T06:15:54;5.40;99.90
19999;DHT22;10160;50.926;4.374;2023-02-15T06:18:19;5.30;99.90
19999;DHT22;10160;50.926;4.374;2023-02-15T06:20:45;5.30;99.90
19999;DHT22;10160;50.926;4.374;2023-02-15T06:23:11;5.30;99.90
19999;DHT22;10160;50.926;4.374;2023-02-15T06:25:37;5.20;99.90
19999;DHT22;10160;50.926;4.374;2023-02-15T06:28:03;5.20;99.90
19999;DHT22;10160;50.926;4.374;2023-02-15T06:30:28;5.10;99.90
19999;DHT22;10160;50.926;4.374;2023-02-15T06:32:54;5.10;99.90
19999;DHT22;10160;50.926;4.374;2023-02-15T06:35:20;5.00;99.90
19999;DHT22;10160;50.926;4.374;2023-02-15T06:37:47;5.00;99.90
19999;DHT22;10160;50.926;4.374;2023-02-15T06:40:13;5.00;99.90
19999;DHT22;10160;50.926;4.374;2023-02-15T06:42:39;5.00;99.90
19999;DHT22;10160;50.926;4.374;2023-02-15T06:45:05;4.90;99.90
19999;DHT22;10160;50.926;4.374;2023-02-15T06:47:30;5.00;99.90
19999;DHT22;10160;50.926;4.374;2023-02-15T06:49:56;5.00;99.90
19999;DHT22;10160;50.926;4.374;2023-02-15T06:52:23;5.00;99.90
19999;DHT22;10160;50.926;4.374;2023-02-15T06:54:49;5.00;99.90
19999;DHT22;10160;50.926;4.374;2023-02-15T06:57:14;4.90;99.90
19999;DHT22;10160;50.926;4.374;2023-02-15T06:59:40;4.90;99.90
19999;DHT22;10160;50.926;4.374;2023-02-15T07:02:06;4.90;99.90
19999;DHT22;10160;50.926;4.374;2023-02-15T07:04:31;4.90;99.90
19999;DHT22;10160;50.926;4.374;2023-02-15T07:06:57;4.90;99.90
19999;DHT22;10160;50.926;4.374;2023-02-15T07:09:23;4.90;99.90
19999;DHT22;10160;50.926;4.374;2023-02-15T07:11:49;4.90;99.90
19999;DHT22;10160;50.926;4.374;2023-02-15T07:14:33;5.00;99.90
19999;DHT22;10160;50.926;4.374;2023-02-15T07:16:59;5.10;99.90
19999;DHT22;10160;50.926;4.374;2023-02-15T07:19:25;5.20;99.90
19999;DHT22;10160;50.926;4.374;2023-02-15T07:21:50;5.20;99.90
19999;DHT22;10160;50.926;4.374;2023-02-15T07:24:16;5.30;99.90
19999;DHT22;10160;50.926;4.374;2023-02-15T07:26:42;5.40;99.90
19999;DHT22;10160;50.926;4.374;2023-02-15T07:29:08;5.50;99.90
19999;DHT22;10160;50.926;4.374;2023-02-15T07:31:34;5.70;99.90
19999;DHT22;10160;50.926;4.374;2023-02-15T07:34:00;5.80;99.90
19999;DHT22;10160;50.926;4.374;2023-02-15T07:36:26;5.90;99.90
19999;DHT22;10160;50.926;4.374;2023-02-15T07:38:51;6.00;99.90
19999;DHT22;10160;50.926;4.374;2023-02-15T07:41:17;6.00;99.90
19999;DHT22;10160;50.926;4.374;2023-02-15T07:43:44;6.10;99.90
19999;DHT22;10160;50.926;4.374;2023-02-15T07:46:13;6.10;99.90
19999;DHT22;10160;50.926;4.374;2023-02-15T07:48:40;6.20;99.90
19999;DHT22;10160;50.926;4.374;2023-02-15T07:51:08;6.20;99.90
19999;DHT22;10160;50.926;4.374;2023-02-15T07:53:34;6.20;99.90
19999;DHT22;10160;50.926;4.374;2023-02-15T07:56:05;6.30;99.90
19999;DHT22;10160;50.926;4.374;2023-02-15T07:58:33;6.30;99.90
19999;DHT22;10160;50.926;4.374;2023-02-15T08:01:25;6.40;99.90
19999;DHT22;10160;50.926;4.374;2023-02-15T08:03:52;6.50;99.90
19999;DHT22;10160;50.926;4.374;2023-02-15T08:06:18;6.50;99.90
19999;DHT22;10160;50.926;4.374;2023-02-15T08:08:44;6.60;99.90
19999;DHT22;10160;50.926;4.374;2023-02-15T08:11:31;6.70;99.90
19999;DHT22;10160;50.926;4.374;2023-02-15T08:14:07;6.70;99.90
19999;DHT22;10160;50.926;4.374;2023-02-15T08:16:41;6.80;99.90
19999;DHT22;10160;50.926;4.374;2023-02-15T08:19:11;6.80;99.90
19999;DHT22;10160;50.926;4.374;2023-02-15T08:21:39;7.00;99.90
19999;DHT22;10160;50.926;4.374;2023-02-15T08:24:07;7.30;99.90
19999;DHT22;10160;50.926;4.374;2023-02-15T08:26:33;7.40;99.90
19999;DHT22;10160;50.926;4.374;2023-02-15T08:29:00;7.70;99.90
19999;DHT22;10160;50.926;4.374;2023-02-15T08:31:26;7.90;99.90
19999;DHT22;10160;50.926;4.374;2023-02-15T08:33:53;8.20;99.90
19999;DHT22;10160;50.926;4.374;2023-02-15T08:36:22;8.40;99.90
19999;DHT22;10160;50.926;4.374;2023-02-15T08:38:48;8.60;99.90
19999;DHT22;10160;50.926;4.374;2023-02-15T08:43:45;8.50;99.90
19999;DHT22;10160;50.926;4.374;2023-02-15T08:46:13;8.30;99.90
19999;DHT22;10160;50.926;4.374;2023-02-15T08:48:39;8.30;99.90
19999;DHT22;10160;50.926;4.374;2023-02-15T08:51:20;8.40;99.90
19999;DHT22;10160;50.926;4.374;2023-02-15T08:53:53;8.60;99.90
19999;DHT22;10160;50.926;4.374;2023-02-15T08:56:22;8.90;99.90
19999;DHT22;10160;50.926;4.374;2023-02-15T08:58:48;9.10;99.90
19999;DHT22;10160;50.926;4.374;2023-02-15T09:01:16;9.30;99.90
19999;DHT22;10160;50.926;4.374;2023-02-15T09:03:55;9.30;99.90
19999;DHT22;10160;50.926;4.374;2023-02-15T09:06:21;9.40;99.90
19999;DHT22;10160;50.926;4.374;2023-02-15T09:08:48;9.40;99.90
19999;DHT22;10160;50.926;4.374;2023-02-15T09:11:18;9.60;99.90
19999;DHT22;10160;50.926;4.374;2023-02-15T09:13:58;9.60;99.90
19999;DHT22;10160;50.926;4.374;2023-02-15T09:16:26;9.50;99.90
19999;DHT22;10160;50.926;4.374;2023-02-15T09:18:53;9.50;99.90
19999;DHT22;10160;50.926;4.374;2023-02-15T09:21:21;9.40;99.90
19999;DHT22;10160;50.926;4.374;2023-02-15T09:23:49;9.40;99.90
19999;DHT22;10160;50.926;4.374;2023-02-15T09:26:20;9.60;99.90
19999;DHT22;10160;50.926;4.374;2023-02-15T09:28:47;9.70;99.90
19999;DHT22;10160;50.926;4.374;2023-02-15T09:31:22;9.80;99.90
19999;DHT22;10160;50.926;4.374;2023-02-15T09:33:49;9.80;99.90
19999;DHT22;10160;50.926;4.374;2023-02-15T09:36:18;9.70;99.90
19999;DHT22;10160;50.926;4.374;2023-02-15T09:38:52;9.90;99.90
19999;DHT22;10160;50.926;4.374;2023-02-15T10:01:38;10.70;99.90
19999;DHT22;10160;50.926;4.374;2023-02-15T10:06:58;10.70;99.90
19999;DHT22;10160;50.926;4.374;2023-02-15T10:09:32;10.90;99.90
19999;DHT22;10160;50.926;4.374;2023-02-15T10:15:24;11.70;99.90
19999;DHT22;10160;50.926;4.374;2023-02-15T10:26:38;13.10;99.90
19999;DHT22;10160;50.926;4.374;2023-02-15T10:29:34;13.10;99.90
19999;DHT22;10160;50.926;4.374;2023-02-15T10:32:11;13.60;99.90
19999;DHT22;10160;50.926;4.374;2023-02-15T10:34:47;14.10;99.90
19999;DHT22;10160;50.926;4.374;2023-02-15T10:37:32;14.20;99.90
19999;DHT22;10160;50.926;4.374;2023-02-15T10:48:13;15.20;99.90
19999;DHT22;10160;50.926;4.374;2023-02-15T10:51:00;15.70;99.90
19999;DHT22;10160;50.926;4.374;2023-02-15T10:53:47;16.40;99.90
19999;DHT22;10160;50.926;4.374;2023-02-15T11:06:56;15.50;99.90
19999;DHT22;10160;50.926;4.374;2023-02-15T11:09:25;15.20;99.90
19999;DHT22;10160;50.926;4.374;2023-02-15T11:11:56;14.60;99.90
19999;DHT22;10160;50.926;4.374;2023-02-15T11:14:55;14.90;99.90
19999;DHT22;10160;50.926;4.374;2023-02-15T11:17:45;15.00;99.90
19999;DHT22;10160;50.926;4.374;2023-02-15T11:20:29;15.60;99.90
19999;DHT22;10160;50.926;4.374;2023-02-15T11:22:57;15.10;99.90
19999;DHT22;10160;50.926;4.374;2023-02-15T11:25:30;15.10;99.90
19999;DHT22;10160;50.926;4.374;2023-02-15T11:27:57;15.00;99.90
19999;DHT22;10160;50.926;4.374;2023-02-15T11:30:26;14.90;99.90
19999;DHT22;10160;50.926;4.374;2023-02-15T11:32:58;15.40;99.90
19999;DHT22;10160;50.926;4.374;2023-02-15T11:35:39;16.00;99.90
19999;DHT22;10160;50.926;4.374;2023-02-15T11:38:34;15.90;99.90
19999;DHT22;10160;50.926;4.374;2023-02-15T11:41:07;15.70;99.90
19999;DHT22;10160;50.926;4.374;2023-02-15T11:44:17;15.50;99.90
19999;DHT22;10160;50.926;4.374;2023-02-15T11:46:46;15.70;99.90
19999;DHT22;10160;50.926;4.374;2023-02-15T11:51:49;16.00;99.90
19999;DHT22;10160;50.926;4.374;2023-02-15T11:54:21;16.20;99.90
19999;DHT22;10160;50.926;4.374;2023-02-15T11:56:49;16.50;99.90
19999;DHT22;10160;50.926;4.374;2023-02-15T11:59:24;16.20;99.90
19999;DHT22;10160;50.926;4.374;2023-02-15T12:01:52;16.30;99.90
19999;DHT22;10160;50.926;4.374;2023-02-15T12:04:36;16.30;99.90
19999;DHT22;10160;50.926;4.374;2023-02-15T12:12:37;16.30;99.90
19999;DHT22;10160;50.926;4.374;2023-02-15T12:15:12;16.40;99.90
19999;DHT22;10160;50.926;4.374;2023-02-15T12:17:42;16.70;99.90
19999;DHT22;10160;50.926;4.374;2023-02-15T12:22:39;15.90;99.90
19999;DHT22;10160;50.926;4.374;2023-02-15T12:27:48;15.30;99.90
19999;DHT22;10160;50.926;4.374;2023-02-15T12:32:52;14.90;99.90
19999;DHT22;10160;50.926;4.374;2023-02-15T12:35:31;15.10;99.90
19999;DHT22;10160;50.926;4.374;2023-02-15T12:38:05;14.90;99.90
19999;DHT22;10160;50.926;4.374;2023-02-15T12:40:57;15.20;99.90
19999;DHT22;10160;50.926;4.374;2023-02-15T12:43:36;15.60;99.90
19999;DHT22;10160;50.926;4.374;2023-02-15T12:46:23;16.00;99.90
19999;DHT22;10160;50.926;4.374;2023-02-15T12:51:51;17.10;99.90
19999;DHT22;10160;50.926;4.374;2023-02-15T12:54:32;17.90;99.90
19999;DHT22;10160;50.926;4.374;2023-02-15T12:57:13;17.30;99.90
19999;DHT22;10160;50.926;4.374;2023-02-15T12:59:54;17.60;99.90
19999;DHT22;10160;50.926;4.374;2023-02-15T13:05:19;17.60;99.90
19999;DHT22;10160;50.926;4.374;2023-02-15T13:07:51;18.00;99.90
19999;DHT22;10160;50.926;4.374;2023-02-15T13:10:23;18.20;99.90
19999;DHT22;10160;50.926;4.374;2023-02-15T13:12:50;18.60;99.90
19999;DHT22;10160;50.926;4.374;2023-02-15T13:15:40;18.90;99.90
19999;DHT22;10160;50.926;4.374;2023-02-15T13:18:13;18.70;99.90
19999;DHT22;10160;50.926;4.374;2023-02-15T13:20:41;18.40;99.90
19999;DHT22;10160;50.926;4.374;2023-02-15T13:23:28;18.00;99.90
19999;DHT22;10160;50.926;4.374;2023-02-15T13:25:56;17.40;99.90
19999;DHT22;10160;50.926;4.374;2023-02-15T13:28:29;17.10;99.90
19999;DHT22;10160;50.926;4.374;2023-02-15T13:30:56;17.20;99.90
19999;DHT22;10160;50.926;4.374;2023-02-15T13:33:32;17.00;99.90
19999;DHT22;10160;50.926;4.374;2023-02-15T13:36:08;16.90;99.90
19999;DHT22;10160;50.926;4.374;2023-02-15T13:41:15;16.70;99.90
19999;DHT22;10160;50.926;4.374;2023-02-15T13:43:53;16.70;99.90
19999;DHT22;10160;50.926;4.374;2023-02-15T13:52:23;17.20;99.90
19999;DHT22;10160;50.926;4.374;2023-02-15T14:03:32;18.10;99.90
19999;DHT22;10160;50.926;4.374;2023-02-15T14:25:38;17.40;99.90
19999;DHT22;10160;50.926;4.374;2023-02-15T14:28:35;16.70;99.90
19999;DHT22;10160;50.926;4.374;2023-02-15T14:31:04;16.70;99.90
19999;DHT22;10160;50.926;4.374;2023-02-15T14:33:47;16.70;99.90
19999;DHT22;10160;50.926;4.374;2023-02-15T14:36:18;16.80;99.90
19999;DHT22;10160;50.926;4.374;2023-02-15T14:42:05;15.70;99.90
19999;DHT22;10160;50.926;4.374;2023-02-15T14:44:28;15.70;99.90
19999;DHT22;10160;50.926;4.374;2023-02-15T14:49:39;15.60;99.90
19999;DHT22;10160;50.926;4.374;2023-02-15T14:52:09;15.50;99.90
19999;DHT22;10160;50.926;4.374;2023-02-15T15:12:49;15.30;99.90
19999;DHT22;10160;50.926;4.374;2023-02-15T15:18:09;14.70;99.90
19999;DHT22;10160;50.926;4.374;2023-02-15T15:20:46;14.70;99.90
19999;DHT22;10160;50.926;4.374;2023-02-15T15:28:06;15.20;99.90
19999;DHT22;10160;50.926;4.374;2023-02-15T15:41:52;14.90;99.90
19999;DHT22;10160;50.926;4.374;2023-02-15T15:49:56;14.10;99.90
19999;DHT22;10160;50.926;4.374;2023-02-15T15:52:22;14.00;99.90
19999;DHT22;10160;50.926;4.374;2023-02-15T15:54:53;13.90;99.90
19999;DHT22;10160;50.926;4.374;2023-02-15T15:57:37;13.90;99.90
19999;DHT22;10160;50.926;4.374;2023-02-15T16:00:04;13.70;99.90
19999;DHT22;10160;50.926;4.374;2023-02-15T16:02:51;13.80;99.90
19999;DHT22;10160;50.926;4.374;2023-02-15T16:05:17;13.60;99.90
19999;DHT22;10160;50.926;4.374;2023-02-15T16:07:43;13.60;99.90
19999;DHT22;10160;50.926;4.374;2023-02-15T16:10:24;13.40;99.90
19999;DHT22;10160;50.926;4.374;2023-02-15T16:12:51;13.40;99.90
19999;DHT22;10160;50.926;4.374;2023-02-15T16:15:25;13.10;99.90
19999;DHT22;10160;50.926;4.374;2023-02-15T16:17:55;12.90;99.90
19999;DHT22;10160;50.926;4.374;2023-02-15T16:20:33;12.90;99.90
19999;DHT22;10160;50.926;4.374;2023-02-15T16:28:52;12.70;99.90
19999;DHT22;10160;50.926;4.374;2023-02-15T16:31:19;12.80;99.90
19999;DHT22;10160;50.926;4.374;2023-02-15T16:33:48;12.70;99.90
19999;DHT22;10160;50.926;4.374;2023-02-15T16:36:27;12.60;99.90
19999;DHT22;10160;50.926;4.374;2023-02-15T16:41:24;12.50;99.90
19999;DHT22;10160;50.926;4.374;2023-02-15T16:43:53;12.50;99.90
19999;DHT22;10160;50.926;4.374;2023-02-15T16:46:31;12.30;99.90
19999;DHT22;10160;50.926;4.374;2023-02-15T16:49:01;12.20;99.90
19999;DHT22;10160;50.926;4.374;2023-02-15T16:51:32;12.10;99.90
19999;DHT22;10160;50.926;4.374;2023-02-15T16:54:17;12.10;99.90
19999;DHT22;10160;50.926;4.374;2023-02-15T16:56:44;12.00;99.90
19999;DHT22;10160;50.926;4.374;2023-02-15T16:59:27;11.90;99.90
19999;DHT22;10160;50.926;4.374;2023-02-15T17:01:54;11.80;99.90
19999;DHT22;10160;50.926;4.374;2023-02-15T17:04:28;11.80;99.90
19999;DHT22;10160;50.926;4.374;2023-02-15T17:07:06;11.80;99.90
19999;DHT22;10160;50.926;4.374;2023-02-15T17:09:32;11.70;99.90
19999;DHT22;10160;50.926;4.374;2023-02-15T17:11:59;11.60;99.90
19999;DHT22;10160;50.926;4.374;2023-02-15T17:14:31;11.60;99.90
19999;DHT22;10160;50.926;4.374;2023-02-15T17:17:05;11.60;99.90
19999;DHT22;10160;50.926;4.374;2023-02-15T17:19:49;11.60;99.90
19999;DHT22;10160;50.926;4.374;2023-02-15T17:22:24;11.50;99.90
19999;DHT22;10160;50.926;4.374;2023-02-15T17:24:59;11.60;99.90
19999;DHT22;10160;50.926;4.374;2023-02-15T17:27:26;11.60;99.90
19999;DHT22;10160;50.926;4.374;2023-02-15T17:30:01;11.50;99.90
19999;DHT22;10160;50.926;4.374;2023-02-15T17:32:30;11.40;99.90
19999;DHT22;10160;50.926;4.374;2023-02-15T17:35:30;11.30;99.90
19999;DHT22;10160;50.926;4.374;2023-02-15T17:38:20;11.40;99.90
19999;DHT22;10160;50.926;4.374;2023-02-15T17:40:46;11.50;99.90
19999;DHT22;10160;50.926;4.374;2023-02-15T17:43:12;11.50;99.90
19999;DHT22;10160;50.926;4.374;2023-02-15T17:45:48;11.50;99.90
19999;DHT22;10160;50.926;4.374;2023-02-15T17:48:37;11.60;99.90
19999;DHT22;10160;50.926;4.374;2023-02-15T17:51:07;11.40;99.90
19999;DHT22;10160;50.926;4.374;2023-02-15T17:53:36;11.50;99.90
19999;DHT22;10160;50.926;4.374;2023-02-15T17:56:02;11.40;99.90
19999;DHT22;10160;50.926;4.374;2023-02-15T17:58:35;11.30;99.90
19999;DHT22;10160;50.926;4.374;2023-02-15T18:01:05;11.40;99.90
19999;DHT22;10160;50.926;4.374;2023-02-15T18:03:52;11.30;99.90
19999;DHT22;10160;50.926;4.374;2023-02-15T18:06:41;11.30;99.90
19999;DHT22;10160;50.926;4.374;2023-02-15T18:09:26;11.40;99.90
19999;DHT22;10160;50.926;4.374;2023-02-15T18:12:24;11.40;99.90
19999;DHT22;10160;50.926;4.374;2023-02-15T18:14:51;11.30;99.90
19999;DHT22;10160;50.926;4.374;2023-02-15T18:17:44;11.20;99.90
19999;DHT22;10160;50.926;4.374;2023-02-15T18:20:34;11.20;99.90
19999;DHT22;10160;50.926;4.374;2023-02-15T18:23:01;11.10;99.90
19999;DHT22;10160;50.926;4.374;2023-02-15T18:25:27;11.00;99.90
19999;DHT22;10160;50.926;4.374;2023-02-15T18:27:54;11.00;99.90
19999;DHT22;10160;50.926;4.374;2023-02-15T18:30:22;11.10;99.90
19999;DHT22;10160;50.926;4.374;2023-02-15T18:32:50;11.00;99.90
19999;DHT22;10160;50.926;4.374;2023-02-15T18:35:20;11.00;99.90
19999;DHT22;10160;50.926;4.374;2023-02-15T18:37:47;10.90;99.90
19999;DHT22;10160;50.926;4.374;2023-02-15T18:40:15;10.80;99.90
19999;DHT22;10160;50.926;4.374;2023-02-15T18:42:42;10.80;99.90
19999;DHT22;10160;50.926;4.374;2023-02-15T18:45:21;10.80;99.90
19999;DHT22;10160;50.926;4.374;2023-02-15T18:47:49;10.70;99.90
19999;DHT22;10160;50.926;4.374;2023-02-15T18:50:18;10.80;99.90
19999;DHT22;10160;50.926;4.374;2023-02-15T18:52:48;10.80;99.90
19999;DHT22;10160;50.926;4.374;2023-02-15T18:55:26;10.80;99.90
19999;DHT22;10160;50.926;4.374;2023-02-15T18:57:56;10.70;99.90
19999;DHT22;10160;50.926;4.374;2023-02-15T19:00:24;10.70;99.90
19999;DHT22;10160;50.926;4.374;2023-02-15T19:02:52;10.70;99.90
19999;DHT22;10160;50.926;4.374;2023-02-15T19:05:19;10.60;99.90
19999;DHT22;10160;50.926;4.374;2023-02-15T19:07:45;10.60;99.90
19999;DHT22;10160;50.926;4.374;2023-02-15T19:10:19;10.60;99.90
19999;DHT22;10160;50.926;4.374;2023-02-15T19:12:45;10.60;99.90
19999;DHT22;10160;50.926;4.374;2023-02-15T19:15:20;10.40;99.90
19999;DHT22;10160;50.926;4.374;2023-02-15T19:17:46;10.50;99.90
19999;DHT22;10160;50.926;4.374;2023-02-15T19:20:17;10.50;99.90
19999;DHT22;10160;50.926;4.374;2023-02-15T19:22:45;10.40;99.90